This is the latest recevied weather packets stored in our database for station/object OK1PNK-5. If no packets are shown the sender has not sent any weather packets the latest 10 day(s).
| Time | Temp. | Humidity | Pressure | Rain* | Wind** | Luminosity | Snow |
|---|---|---|---|---|---|---|---|
| 1777280199 | 12.78° C | 45% | 981.7 hPa | 0 mm | - | - | - |
| 1777279599 | 12.22° C | 46% | 981.8 hPa | 0 mm | - | - | - |
| 1777278999 | 11.67° C | 48% | 981.8 hPa | 0 mm | - | - | - |
| 1777278399 | 11.11° C | 50% | 981.9 hPa | 0 mm | - | - | - |
| 1777277799 | 11.11° C | 50% | 981.9 hPa | 0 mm | - | - | - |
| 1777277199 | 10° C | 53% | 981.9 hPa | 0 mm | - | - | - |
| 1777276599 | 9.44° C | 55% | 981.8 hPa | 0 mm | - | - | - |
| 1777275999 | 9.44° C | 55% | 981.8 hPa | 0 mm | - | - | - |
| 1777275399 | 5.56° C | 63% | 982.1 hPa | 0 mm | - | - | - |
| 1777274799 | 5.56° C | 63% | 982.1 hPa | 0 mm | - | - | - |
| 1777274199 | 5.56° C | 63% | 982.1 hPa | 0 mm | - | - | - |
| 1777273599 | 5.56° C | 63% | 982.1 hPa | 0 mm | - | - | - |
| 1777272999 | 5.56° C | 63% | 982.1 hPa | 0 mm | - | - | - |
| 1777272399 | 5° C | 64% | 982.2 hPa | 0 mm | - | - | - |
| 1777271799 | 5° C | 66% | 982.2 hPa | 0 mm | - | - | - |
| 1777271199 | 4.44° C | 66% | 982.1 hPa | 0 mm | - | - | - |
| 1777270599 | 4.44° C | 66% | 982.1 hPa | 0 mm | - | - | - |
| 1777269999 | 3.89° C | 66% | 982 hPa | 0 mm | - | - | - |
| 1777269399 | 3.89° C | 66% | 982 hPa | 0 mm | - | - | - |
| 1777268799 | 3.33° C | 66% | 982 hPa | 0 mm | - | - | - |
| 1777268199 | 3.33° C | 63% | 981.7 hPa | 0 mm | - | - | - |
| 1777267599 | 3.33° C | 63% | 981.7 hPa | 0 mm | - | - | - |
| 1777266999 | 3.33° C | 63% | 981.7 hPa | 0 mm | - | - | - |
| 1777266399 | 3.33° C | 63% | 981.7 hPa | 0 mm | - | - | - |
| 1777265799 | 3.33° C | 63% | 981.7 hPa | 0 mm | - | - | - |
* Rain latest hour (hover to see other rain measurements)
** Current wind speed in m/s (hover to see current wind gust speed)